sensor_id;sensor_type;location;lat;lon;timestamp;P1;durP1;ratioP1;P2;durP2;ratioP2
20314;SDS011;10315;50.958;13.080;2022-08-20T00:07:57;44.97;;;21.33;;
20314;SDS011;10315;50.958;13.080;2022-08-20T00:18:01;47.25;;;20.73;;
20314;SDS011;10315;50.958;13.080;2022-08-20T00:28:03;45.55;;;21.20;;
20314;SDS011;10315;50.958;13.080;2022-08-20T00:38:07;45.45;;;22.85;;
20314;SDS011;10315;50.958;13.080;2022-08-20T00:48:09;49.72;;;23.60;;
20314;SDS011;10315;50.958;13.080;2022-08-20T00:58:12;57.47;;;25.88;;
20314;SDS011;10315;50.958;13.080;2022-08-20T01:08:14;56.97;;;25.58;;
20314;SDS011;10315;50.958;13.080;2022-08-20T01:18:20;70.72;;;30.67;;
20314;SDS011;10315;50.958;13.080;2022-08-20T01:28:29;68.22;;;30.20;;
20314;SDS011;10315;50.958;13.080;2022-08-20T01:38:34;71.35;;;29.63;;
20314;SDS011;10315;50.958;13.080;2022-08-20T01:48:39;68.55;;;28.67;;
20314;SDS011;10315;50.958;13.080;2022-08-20T01:58:42;67.72;;;29.67;;
20314;SDS011;10315;50.958;13.080;2022-08-20T02:08:47;67.68;;;29.02;;
20314;SDS011;10315;50.958;13.080;2022-08-20T02:18:51;75.50;;;31.63;;
20314;SDS011;10315;50.958;13.080;2022-08-20T02:28:57;85.50;;;32.08;;
20314;SDS011;10315;50.958;13.080;2022-08-20T02:38:58;88.60;;;33.92;;
20314;SDS011;10315;50.958;13.080;2022-08-20T02:49:02;99.80;;;34.72;;
20314;SDS011;10315;50.958;13.080;2022-08-20T02:59:04;90.68;;;33.88;;
20314;SDS011;10315;50.958;13.080;2022-08-20T03:09:08;100.57;;;35.60;;
20314;SDS011;10315;50.958;13.080;2022-08-20T03:19:09;94.30;;;35.80;;
20314;SDS011;10315;50.958;13.080;2022-08-20T03:29:14;101.45;;;35.95;;
20314;SDS011;10315;50.958;13.080;2022-08-20T03:39:15;105.68;;;35.20;;
20314;SDS011;10315;50.958;13.080;2022-08-20T03:49:18;95.95;;;31.58;;
20314;SDS011;10315;50.958;13.080;2022-08-20T03:59:20;72.88;;;27.40;;
20314;SDS011;10315;50.958;13.080;2022-08-20T04:09:23;70.97;;;26.25;;
20314;SDS011;10315;50.958;13.080;2022-08-20T04:19:24;66.32;;;26.33;;
20314;SDS011;10315;50.958;13.080;2022-08-20T04:29:27;55.75;;;24.30;;
20314;SDS011;10315;50.958;13.080;2022-08-20T04:39:29;51.65;;;21.60;;
20314;SDS011;10315;50.958;13.080;2022-08-20T04:49:32;40.80;;;19.75;;
20314;SDS011;10315;50.958;13.080;2022-08-20T04:59:34;40.60;;;19.52;;
20314;SDS011;10315;50.958;13.080;2022-08-20T05:09:37;40.42;;;18.75;;
20314;SDS011;10315;50.958;13.080;2022-08-20T05:19:38;38.53;;;18.63;;
20314;SDS011;10315;50.958;13.080;2022-08-20T05:29:54;42.33;;;20.20;;
20314;SDS011;10315;50.958;13.080;2022-08-20T05:40:09;39.42;;;19.45;;
20314;SDS011;10315;50.958;13.080;2022-08-20T05:50:17;36.50;;;19.83;;
20314;SDS011;10315;50.958;13.080;2022-08-20T06:00:29;49.53;;;21.85;;
20314;SDS011;10315;50.958;13.080;2022-08-20T06:10:39;44.50;;;20.88;;
20314;SDS011;10315;50.958;13.080;2022-08-20T06:20:51;41.35;;;21.35;;
20314;SDS011;10315;50.958;13.080;2022-08-20T06:30:57;39.45;;;19.05;;
20314;SDS011;10315;50.958;13.080;2022-08-20T06:41:14;29.70;;;16.63;;
20314;SDS011;10315;50.958;13.080;2022-08-20T06:51:21;36.72;;;17.13;;
20314;SDS011;10315;50.958;13.080;2022-08-20T07:01:22;43.20;;;18.73;;
20314;SDS011;10315;50.958;13.080;2022-08-20T07:11:25;40.80;;;18.92;;
20314;SDS011;10315;50.958;13.080;2022-08-20T07:21:27;38.38;;;18.85;;
20314;SDS011;10315;50.958;13.080;2022-08-20T07:31:30;37.67;;;19.60;;
20314;SDS011;10315;50.958;13.080;2022-08-20T07:41:49;39.67;;;20.38;;
20314;SDS011;10315;50.958;13.080;2022-08-20T07:52:03;40.67;;;20.40;;
20314;SDS011;10315;50.958;13.080;2022-08-20T08:02:06;40.35;;;20.55;;
20314;SDS011;10315;50.958;13.080;2022-08-20T08:12:09;44.10;;;23.77;;
20314;SDS011;10315;50.958;13.080;2022-08-20T08:22:13;48.53;;;22.50;;
20314;SDS011;10315;50.958;13.080;2022-08-20T08:32:18;43.38;;;23.02;;
20314;SDS011;10315;50.958;13.080;2022-08-20T08:42:21;42.50;;;22.05;;
20314;SDS011;10315;50.958;13.080;2022-08-20T08:52:28;36.05;;;20.63;;
20314;SDS011;10315;50.958;13.080;2022-08-20T09:02:32;28.42;;;16.50;;
20314;SDS011;10315;50.958;13.080;2022-08-20T09:12:36;26.25;;;15.70;;
20314;SDS011;10315;50.958;13.080;2022-08-20T09:22:38;23.98;;;15.80;;
20314;SDS011;10315;50.958;13.080;2022-08-20T09:32:42;22.92;;;14.82;;
20314;SDS011;10315;50.958;13.080;2022-08-20T09:42:44;25.45;;;16.60;;
20314;SDS011;10315;50.958;13.080;2022-08-20T09:52:47;26.23;;;15.50;;
20314;SDS011;10315;50.958;13.080;2022-08-20T10:02:50;18.45;;;12.75;;
20314;SDS011;10315;50.958;13.080;2022-08-20T10:12:53;14.57;;;11.00;;
20314;SDS011;10315;50.958;13.080;2022-08-20T10:22:55;14.50;;;10.27;;
20314;SDS011;10315;50.958;13.080;2022-08-20T10:32:58;14.40;;;10.75;;
20314;SDS011;10315;50.958;13.080;2022-08-20T10:42:59;14.60;;;10.20;;
20314;SDS011;10315;50.958;13.080;2022-08-20T10:53:03;13.95;;;8.07;;
20314;SDS011;10315;50.958;13.080;2022-08-20T11:03:05;13.60;;;8.68;;
20314;SDS011;10315;50.958;13.080;2022-08-20T11:13:08;10.25;;;7.70;;
20314;SDS011;10315;50.958;13.080;2022-08-20T11:23:11;12.50;;;8.70;;
20314;SDS011;10315;50.958;13.080;2022-08-20T11:33:13;12.68;;;8.18;;
20314;SDS011;10315;50.958;13.080;2022-08-20T11:43:15;10.13;;;7.40;;
20314;SDS011;10315;50.958;13.080;2022-08-20T11:53:18;12.43;;;8.77;;
20314;SDS011;10315;50.958;13.080;2022-08-20T12:03:20;16.95;;;10.88;;
20314;SDS011;10315;50.958;13.080;2022-08-20T12:13:23;18.20;;;10.45;;
20314;SDS011;10315;50.958;13.080;2022-08-20T12:23:25;17.55;;;10.93;;
20314;SDS011;10315;50.958;13.080;2022-08-20T12:33:28;15.07;;;10.95;;
20314;SDS011;10315;50.958;13.080;2022-08-20T12:43:29;15.57;;;10.50;;
20314;SDS011;10315;50.958;13.080;2022-08-20T12:53:32;19.10;;;12.45;;
20314;SDS011;10315;50.958;13.080;2022-08-20T13:03:34;16.75;;;12.15;;
20314;SDS011;10315;50.958;13.080;2022-08-20T13:13:37;18.35;;;12.80;;
20314;SDS011;10315;50.958;13.080;2022-08-20T13:23:38;22.75;;;12.40;;
20314;SDS011;10315;50.958;13.080;2022-08-20T13:33:41;18.75;;;12.43;;
20314;SDS011;10315;50.958;13.080;2022-08-20T13:43:43;19.45;;;12.00;;
20314;SDS011;10315;50.958;13.080;2022-08-20T13:53:46;19.67;;;12.40;;
20314;SDS011;10315;50.958;13.080;2022-08-20T14:03:47;20.25;;;13.38;;
20314;SDS011;10315;50.958;13.080;2022-08-20T14:13:50;21.85;;;12.90;;
20314;SDS011;10315;50.958;13.080;2022-08-20T14:23:51;20.02;;;12.68;;
20314;SDS011;10315;50.958;13.080;2022-08-20T14:33:56;25.75;;;15.90;;
20314;SDS011;10315;50.958;13.080;2022-08-20T14:43:57;24.23;;;15.50;;
20314;SDS011;10315;50.958;13.080;2022-08-20T14:54:00;22.45;;;14.30;;
20314;SDS011;10315;50.958;13.080;2022-08-20T15:04:02;21.23;;;13.77;;
20314;SDS011;10315;50.958;13.080;2022-08-20T15:14:05;21.42;;;13.32;;
20314;SDS011;10315;50.958;13.080;2022-08-20T15:24:06;21.52;;;15.05;;
20314;SDS011;10315;50.958;13.080;2022-08-20T15:34:09;20.60;;;14.00;;
20314;SDS011;10315;50.958;13.080;2022-08-20T15:44:11;21.08;;;13.80;;
20314;SDS011;10315;50.958;13.080;2022-08-20T15:54:15;19.70;;;13.00;;
20314;SDS011;10315;50.958;13.080;2022-08-20T16:04:23;17.73;;;12.95;;
20314;SDS011;10315;50.958;13.080;2022-08-20T16:14:50;21.40;;;14.07;;
20314;SDS011;10315;50.958;13.080;2022-08-20T16:25:01;21.50;;;13.80;;
20314;SDS011;10315;50.958;13.080;2022-08-20T16:35:07;20.60;;;13.80;;
20314;SDS011;10315;50.958;13.080;2022-08-20T16:45:20;20.92;;;14.50;;
20314;SDS011;10315;50.958;13.080;2022-08-20T16:55:25;21.88;;;14.80;;
20314;SDS011;10315;50.958;13.080;2022-08-20T17:05:27;23.50;;;15.10;;
20314;SDS011;10315;50.958;13.080;2022-08-20T17:15:50;23.50;;;14.55;;
20314;SDS011;10315;50.958;13.080;2022-08-20T17:25:54;25.65;;;14.52;;
20314;SDS011;10315;50.958;13.080;2022-08-20T17:36:00;24.10;;;16.13;;
20314;SDS011;10315;50.958;13.080;2022-08-20T17:46:08;24.88;;;15.57;;
20314;SDS011;10315;50.958;13.080;2022-08-20T17:56:18;25.73;;;16.13;;
20314;SDS011;10315;50.958;13.080;2022-08-20T18:06:25;25.65;;;16.45;;
20314;SDS011;10315;50.958;13.080;2022-08-20T18:16:38;27.60;;;16.52;;
20314;SDS011;10315;50.958;13.080;2022-08-20T18:26:45;31.42;;;17.77;;
20314;SDS011;10315;50.958;13.080;2022-08-20T18:36:55;27.63;;;17.92;;
20314;SDS011;10315;50.958;13.080;2022-08-20T18:47:00;30.38;;;17.80;;
20314;SDS011;10315;50.958;13.080;2022-08-20T18:57:05;31.08;;;18.98;;
20314;SDS011;10315;50.958;13.080;2022-08-20T19:07:09;31.27;;;18.10;;
20314;SDS011;10315;50.958;13.080;2022-08-20T19:17:17;34.10;;;19.33;;
20314;SDS011;10315;50.958;13.080;2022-08-20T19:27:26;35.55;;;19.58;;
20314;SDS011;10315;50.958;13.080;2022-08-20T19:37:31;28.88;;;18.15;;
20314;SDS011;10315;50.958;13.080;2022-08-20T19:47:48;36.00;;;20.00;;
20314;SDS011;10315;50.958;13.080;2022-08-20T19:58:04;38.75;;;21.90;;
20314;SDS011;10315;50.958;13.080;2022-08-20T20:08:06;38.10;;;21.25;;
20314;SDS011;10315;50.958;13.080;2022-08-20T20:18:10;38.53;;;20.38;;
20314;SDS011;10315;50.958;13.080;2022-08-20T20:28:16;41.72;;;22.00;;
20314;SDS011;10315;50.958;13.080;2022-08-20T20:38:24;37.60;;;20.98;;
20314;SDS011;10315;50.958;13.080;2022-08-20T20:48:29;36.10;;;19.75;;
20314;SDS011;10315;50.958;13.080;2022-08-20T20:58:40;32.33;;;18.25;;
20314;SDS011;10315;50.958;13.080;2022-08-20T21:08:42;34.03;;;19.00;;
20314;SDS011;10315;50.958;13.080;2022-08-20T21:18:45;33.72;;;19.33;;
20314;SDS011;10315;50.958;13.080;2022-08-20T21:28:47;37.30;;;21.20;;
20314;SDS011;10315;50.958;13.080;2022-08-20T21:38:50;37.13;;;20.83;;
20314;SDS011;10315;50.958;13.080;2022-08-20T21:48:51;44.47;;;22.52;;
20314;SDS011;10315;50.958;13.080;2022-08-20T21:58:55;43.47;;;24.70;;
20314;SDS011;10315;50.958;13.080;2022-08-20T22:08:59;43.08;;;23.58;;
20314;SDS011;10315;50.958;13.080;2022-08-20T22:19:02;48.08;;;23.33;;
20314;SDS011;10315;50.958;13.080;2022-08-20T22:29:04;51.65;;;25.73;;
20314;SDS011;10315;50.958;13.080;2022-08-20T22:39:08;61.67;;;27.20;;
20314;SDS011;10315;50.958;13.080;2022-08-20T22:49:10;50.60;;;26.80;;
20314;SDS011;10315;50.958;13.080;2022-08-20T22:59:15;48.40;;;25.90;;
20314;SDS011;10315;50.958;13.080;2022-08-20T23:09:17;52.80;;;25.75;;
20314;SDS011;10315;50.958;13.080;2022-08-20T23:19:20;56.03;;;26.25;;
20314;SDS011;10315;50.958;13.080;2022-08-20T23:29:22;55.72;;;27.02;;
20314;SDS011;10315;50.958;13.080;2022-08-20T23:39:28;54.47;;;28.92;;
20314;SDS011;10315;50.958;13.080;2022-08-20T23:49:31;57.75;;;28.50;;
20314;SDS011;10315;50.958;13.080;2022-08-20T23:59:34;54.50;;;27.42;;
